sensor_id;sensor_type;location;lat;lon;timestamp;P1;durP1;ratioP1;P2;durP2;ratioP2
1885;SDS011;943;51.568;6.998;2023-07-31T00:01:50;3.70;;;2.27;;
1885;SDS011;943;51.568;6.998;2023-07-31T00:04:18;5.03;;;2.77;;
1885;SDS011;943;51.568;6.998;2023-07-31T00:06:46;4.63;;;2.80;;
1885;SDS011;943;51.568;6.998;2023-07-31T00:09:15;4.53;;;2.80;;
1885;SDS011;943;51.568;6.998;2023-07-31T00:11:43;9.80;;;4.37;;
1885;SDS011;943;51.568;6.998;2023-07-31T00:14:11;7.50;;;4.00;;
1885;SDS011;943;51.568;6.998;2023-07-31T00:16:40;6.10;;;4.10;;
1885;SDS011;943;51.568;6.998;2023-07-31T00:19:09;8.37;;;5.33;;
1885;SDS011;943;51.568;6.998;2023-07-31T00:21:36;11.33;;;5.40;;
1885;SDS011;943;51.568;6.998;2023-07-31T00:24:05;11.40;;;7.37;;
1885;SDS011;943;51.568;6.998;2023-07-31T00:26:33;10.67;;;6.97;;
1885;SDS011;943;51.568;6.998;2023-07-31T00:29:01;12.73;;;6.63;;
1885;SDS011;943;51.568;6.998;2023-07-31T00:31:29;12.80;;;7.53;;
1885;SDS011;943;51.568;6.998;2023-07-31T00:33:57;11.83;;;7.53;;
1885;SDS011;943;51.568;6.998;2023-07-31T00:36:25;12.63;;;7.63;;
1885;SDS011;943;51.568;6.998;2023-07-31T00:38:53;17.47;;;8.33;;
1885;SDS011;943;51.568;6.998;2023-07-31T00:41:21;18.83;;;8.17;;
1885;SDS011;943;51.568;6.998;2023-07-31T00:43:49;17.70;;;8.40;;
1885;SDS011;943;51.568;6.998;2023-07-31T00:46:17;16.67;;;8.20;;
1885;SDS011;943;51.568;6.998;2023-07-31T00:48:46;16.83;;;8.50;;
1885;SDS011;943;51.568;6.998;2023-07-31T00:51:17;20.27;;;9.90;;
1885;SDS011;943;51.568;6.998;2023-07-31T00:53:44;21.00;;;8.80;;
1885;SDS011;943;51.568;6.998;2023-07-31T00:56:14;17.70;;;8.60;;
1885;SDS011;943;51.568;6.998;2023-07-31T00:58:43;19.07;;;8.93;;
1885;SDS011;943;51.568;6.998;2023-07-31T01:01:11;18.07;;;8.40;;
1885;SDS011;943;51.568;6.998;2023-07-31T01:03:39;22.50;;;9.50;;
1885;SDS011;943;51.568;6.998;2023-07-31T01:06:17;18.20;;;8.33;;
1885;SDS011;943;51.568;6.998;2023-07-31T01:09:20;15.53;;;8.20;;
1885;SDS011;943;51.568;6.998;2023-07-31T01:12:51;22.57;;;8.40;;
1885;SDS011;943;51.568;6.998;2023-07-31T01:15:23;22.67;;;8.70;;
1885;SDS011;943;51.568;6.998;2023-07-31T01:17:51;23.70;;;7.90;;
1885;SDS011;943;51.568;6.998;2023-07-31T01:20:23;21.23;;;9.00;;
1885;SDS011;943;51.568;6.998;2023-07-31T01:26:44;16.60;;;7.53;;
1885;SDS011;943;51.568;6.998;2023-07-31T01:29:42;20.07;;;6.70;;
1885;SDS011;943;51.568;6.998;2023-07-31T01:32:52;16.97;;;7.90;;
1885;SDS011;943;51.568;6.998;2023-07-31T01:35:24;19.53;;;7.80;;
1885;SDS011;943;51.568;6.998;2023-07-31T01:37:53;15.47;;;7.30;;
1885;SDS011;943;51.568;6.998;2023-07-31T01:40:21;13.20;;;7.10;;
1885;SDS011;943;51.568;6.998;2023-07-31T01:42:49;14.27;;;6.43;;
1885;SDS011;943;51.568;6.998;2023-07-31T01:45:17;20.07;;;7.17;;
1885;SDS011;943;51.568;6.998;2023-07-31T01:47:45;17.73;;;7.60;;
1885;SDS011;943;51.568;6.998;2023-07-31T01:50:14;18.00;;;7.60;;
1885;SDS011;943;51.568;6.998;2023-07-31T01:52:42;15.03;;;7.90;;
1885;SDS011;943;51.568;6.998;2023-07-31T01:55:10;15.37;;;6.57;;
1885;SDS011;943;51.568;6.998;2023-07-31T01:57:38;11.70;;;7.23;;
1885;SDS011;943;51.568;6.998;2023-07-31T02:00:07;22.33;;;7.03;;
1885;SDS011;943;51.568;6.998;2023-07-31T02:02:38;20.67;;;6.53;;
1885;SDS011;943;51.568;6.998;2023-07-31T02:05:06;19.27;;;7.07;;
1885;SDS011;943;51.568;6.998;2023-07-31T02:07:36;19.30;;;6.90;;
1885;SDS011;943;51.568;6.998;2023-07-31T02:10:04;15.93;;;6.63;;
1885;SDS011;943;51.568;6.998;2023-07-31T02:12:34;13.00;;;6.60;;
1885;SDS011;943;51.568;6.998;2023-07-31T02:15:03;19.00;;;6.70;;
1885;SDS011;943;51.568;6.998;2023-07-31T02:17:31;15.80;;;6.80;;
1885;SDS011;943;51.568;6.998;2023-07-31T02:20:02;16.03;;;6.47;;
1885;SDS011;943;51.568;6.998;2023-07-31T02:22:35;13.60;;;6.03;;
1885;SDS011;943;51.568;6.998;2023-07-31T02:25:06;12.00;;;5.93;;
1885;SDS011;943;51.568;6.998;2023-07-31T02:27:35;17.90;;;6.77;;
1885;SDS011;943;51.568;6.998;2023-07-31T02:30:03;13.13;;;5.63;;
1885;SDS011;943;51.568;6.998;2023-07-31T02:32:32;11.90;;;5.67;;
1885;SDS011;943;51.568;6.998;2023-07-31T02:35:01;10.93;;;5.40;;
1885;SDS011;943;51.568;6.998;2023-07-31T02:37:30;18.00;;;6.20;;
1885;SDS011;943;51.568;6.998;2023-07-31T02:39:58;13.13;;;6.30;;
1885;SDS011;943;51.568;6.998;2023-07-31T02:42:27;13.73;;;6.27;;
1885;SDS011;943;51.568;6.998;2023-07-31T02:44:55;12.33;;;6.27;;
1885;SDS011;943;51.568;6.998;2023-07-31T02:47:23;12.30;;;5.47;;
1885;SDS011;943;51.568;6.998;2023-07-31T02:49:51;13.00;;;5.90;;
1885;SDS011;943;51.568;6.998;2023-07-31T02:52:20;14.47;;;5.80;;
1885;SDS011;943;51.568;6.998;2023-07-31T02:54:47;13.80;;;6.40;;
1885;SDS011;943;51.568;6.998;2023-07-31T02:57:15;14.57;;;6.50;;
1885;SDS011;943;51.568;6.998;2023-07-31T02:59:43;11.80;;;5.27;;
1885;SDS011;943;51.568;6.998;2023-07-31T03:02:11;12.47;;;6.40;;
1885;SDS011;943;51.568;6.998;2023-07-31T03:04:40;15.10;;;5.30;;
1885;SDS011;943;51.568;6.998;2023-07-31T03:07:08;17.67;;;5.70;;
1885;SDS011;943;51.568;6.998;2023-07-31T03:09:36;16.13;;;5.70;;
1885;SDS011;943;51.568;6.998;2023-07-31T03:12:03;15.50;;;5.50;;
1885;SDS011;943;51.568;6.998;2023-07-31T03:14:32;20.07;;;5.90;;
1885;SDS011;943;51.568;6.998;2023-07-31T03:17:00;12.77;;;5.93;;
1885;SDS011;943;51.568;6.998;2023-07-31T03:19:30;12.40;;;5.60;;
1885;SDS011;943;51.568;6.998;2023-07-31T03:21:59;9.90;;;5.60;;
1885;SDS011;943;51.568;6.998;2023-07-31T03:24:28;17.77;;;6.47;;
1885;SDS011;943;51.568;6.998;2023-07-31T03:26:56;13.03;;;5.83;;
1885;SDS011;943;51.568;6.998;2023-07-31T03:29:29;15.07;;;6.87;;
1885;SDS011;943;51.568;6.998;2023-07-31T03:31:57;19.53;;;6.70;;
1885;SDS011;943;51.568;6.998;2023-07-31T03:34:26;15.00;;;6.00;;
1885;SDS011;943;51.568;6.998;2023-07-31T03:36:56;16.30;;;7.10;;
1885;SDS011;943;51.568;6.998;2023-07-31T03:39:24;23.40;;;6.57;;
1885;SDS011;943;51.568;6.998;2023-07-31T03:41:53;15.37;;;6.80;;
1885;SDS011;943;51.568;6.998;2023-07-31T03:44:21;15.40;;;6.90;;
1885;SDS011;943;51.568;6.998;2023-07-31T03:46:49;10.87;;;5.60;;
1885;SDS011;943;51.568;6.998;2023-07-31T03:49:18;11.37;;;5.47;;
1885;SDS011;943;51.568;6.998;2023-07-31T03:51:46;16.63;;;6.47;;
1885;SDS011;943;51.568;6.998;2023-07-31T03:54:14;14.17;;;5.80;;
1885;SDS011;943;51.568;6.998;2023-07-31T03:56:42;20.47;;;5.27;;
1885;SDS011;943;51.568;6.998;2023-07-31T03:59:10;11.73;;;5.30;;
1885;SDS011;943;51.568;6.998;2023-07-31T04:01:38;14.70;;;6.30;;
1885;SDS011;943;51.568;6.998;2023-07-31T04:04:06;13.10;;;5.90;;
1885;SDS011;943;51.568;6.998;2023-07-31T04:06:34;14.77;;;6.80;;
1885;SDS011;943;51.568;6.998;2023-07-31T04:09:03;13.33;;;5.50;;
1885;SDS011;943;51.568;6.998;2023-07-31T04:11:31;17.27;;;6.20;;
1885;SDS011;943;51.568;6.998;2023-07-31T04:13:59;18.03;;;6.37;;
1885;SDS011;943;51.568;6.998;2023-07-31T04:16:27;10.00;;;5.87;;
1885;SDS011;943;51.568;6.998;2023-07-31T04:18:55;13.90;;;5.67;;
1885;SDS011;943;51.568;6.998;2023-07-31T04:21:22;11.60;;;6.07;;
1885;SDS011;943;51.568;6.998;2023-07-31T04:23:50;12.20;;;5.80;;
1885;SDS011;943;51.568;6.998;2023-07-31T04:26:22;14.37;;;4.90;;
1885;SDS011;943;51.568;6.998;2023-07-31T04:28:50;14.20;;;5.60;;
1885;SDS011;943;51.568;6.998;2023-07-31T04:31:18;9.97;;;4.87;;
1885;SDS011;943;51.568;6.998;2023-07-31T04:33:46;11.23;;;6.03;;
1885;SDS011;943;51.568;6.998;2023-07-31T04:36:14;9.57;;;5.80;;
1885;SDS011;943;51.568;6.998;2023-07-31T04:38:42;15.83;;;6.30;;
1885;SDS011;943;51.568;6.998;2023-07-31T04:41:10;14.40;;;5.50;;
1885;SDS011;943;51.568;6.998;2023-07-31T04:43:38;10.40;;;5.63;;
1885;SDS011;943;51.568;6.998;2023-07-31T04:46:06;12.00;;;5.53;;
1885;SDS011;943;51.568;6.998;2023-07-31T04:48:34;15.10;;;6.80;;
1885;SDS011;943;51.568;6.998;2023-07-31T04:51:02;10.70;;;5.37;;
1885;SDS011;943;51.568;6.998;2023-07-31T04:53:30;12.30;;;5.50;;
1885;SDS011;943;51.568;6.998;2023-07-31T04:55:58;11.77;;;5.53;;
1885;SDS011;943;51.568;6.998;2023-07-31T04:58:26;11.60;;;4.60;;
1885;SDS011;943;51.568;6.998;2023-07-31T05:00:54;13.63;;;6.30;;
1885;SDS011;943;51.568;6.998;2023-07-31T05:03:22;13.90;;;5.73;;
1885;SDS011;943;51.568;6.998;2023-07-31T05:05:50;9.90;;;5.53;;
1885;SDS011;943;51.568;6.998;2023-07-31T05:08:18;14.30;;;6.23;;
1885;SDS011;943;51.568;6.998;2023-07-31T05:10:46;12.57;;;5.60;;
1885;SDS011;943;51.568;6.998;2023-07-31T05:13:15;10.10;;;5.70;;
1885;SDS011;943;51.568;6.998;2023-07-31T05:15:43;11.57;;;5.63;;
1885;SDS011;943;51.568;6.998;2023-07-31T05:18:12;15.20;;;6.00;;
1885;SDS011;943;51.568;6.998;2023-07-31T05:20:39;13.10;;;6.50;;
1885;SDS011;943;51.568;6.998;2023-07-31T05:23:07;18.63;;;5.60;;
1885;SDS011;943;51.568;6.998;2023-07-31T05:25:36;9.63;;;5.43;;
1885;SDS011;943;51.568;6.998;2023-07-31T05:28:04;11.03;;;5.97;;
1885;SDS011;943;51.568;6.998;2023-07-31T05:30:32;10.63;;;5.50;;
1885;SDS011;943;51.568;6.998;2023-07-31T05:32:59;8.97;;;6.00;;
1885;SDS011;943;51.568;6.998;2023-07-31T05:35:27;9.87;;;6.63;;
1885;SDS011;943;51.568;6.998;2023-07-31T05:37:55;9.90;;;7.03;;
1885;SDS011;943;51.568;6.998;2023-07-31T05:40:24;14.67;;;6.67;;
1885;SDS011;943;51.568;6.998;2023-07-31T05:42:52;17.20;;;6.43;;
1885;SDS011;943;51.568;6.998;2023-07-31T05:45:19;12.93;;;7.43;;
1885;SDS011;943;51.568;6.998;2023-07-31T05:47:47;12.60;;;7.20;;
1885;SDS011;943;51.568;6.998;2023-07-31T05:50:15;13.93;;;7.27;;
1885;SDS011;943;51.568;6.998;2023-07-31T05:52:43;13.20;;;8.17;;
1885;SDS011;943;51.568;6.998;2023-07-31T05:55:11;25.77;;;9.10;;
1885;SDS011;943;51.568;6.998;2023-07-31T05:57:39;15.97;;;8.10;;
1885;SDS011;943;51.568;6.998;2023-07-31T06:00:07;14.77;;;9.30;;
1885;SDS011;943;51.568;6.998;2023-07-31T06:02:37;12.73;;;8.13;;
1885;SDS011;943;51.568;6.998;2023-07-31T06:05:05;13.73;;;8.80;;
1885;SDS011;943;51.568;6.998;2023-07-31T06:07:34;17.77;;;8.60;;
1885;SDS011;943;51.568;6.998;2023-07-31T06:10:02;16.33;;;9.43;;
1885;SDS011;943;51.568;6.998;2023-07-31T06:12:32;12.60;;;8.33;;
1885;SDS011;943;51.568;6.998;2023-07-31T06:15:02;13.30;;;8.10;;
1885;SDS011;943;51.568;6.998;2023-07-31T06:17:32;13.23;;;7.70;;
1885;SDS011;943;51.568;6.998;2023-07-31T06:20:00;16.77;;;7.70;;
1885;SDS011;943;51.568;6.998;2023-07-31T06:22:31;14.60;;;7.73;;
1885;SDS011;943;51.568;6.998;2023-07-31T06:25:00;11.30;;;7.60;;
1885;SDS011;943;51.568;6.998;2023-07-31T06:27:28;15.43;;;7.73;;
1885;SDS011;943;51.568;6.998;2023-07-31T06:29:56;11.87;;;8.30;;
1885;SDS011;943;51.568;6.998;2023-07-31T06:32:24;16.00;;;8.63;;
1885;SDS011;943;51.568;6.998;2023-07-31T06:34:53;14.60;;;7.50;;
1885;SDS011;943;51.568;6.998;2023-07-31T06:37:20;13.17;;;7.50;;
1885;SDS011;943;51.568;6.998;2023-07-31T06:39:49;12.57;;;9.60;;
1885;SDS011;943;51.568;6.998;2023-07-31T06:42:17;16.83;;;9.80;;
1885;SDS011;943;51.568;6.998;2023-07-31T06:44:45;15.53;;;8.70;;
1885;SDS011;943;51.568;6.998;2023-07-31T06:47:13;15.50;;;9.00;;
1885;SDS011;943;51.568;6.998;2023-07-31T06:49:41;15.07;;;9.10;;
1885;SDS011;943;51.568;6.998;2023-07-31T06:52:09;13.33;;;9.33;;
1885;SDS011;943;51.568;6.998;2023-07-31T06:54:40;12.47;;;8.80;;
1885;SDS011;943;51.568;6.998;2023-07-31T06:57:08;13.60;;;7.43;;
1885;SDS011;943;51.568;6.998;2023-07-31T06:59:36;12.60;;;8.20;;
1885;SDS011;943;51.568;6.998;2023-07-31T07:02:05;13.60;;;8.47;;
1885;SDS011;943;51.568;6.998;2023-07-31T07:04:33;14.43;;;8.10;;
1885;SDS011;943;51.568;6.998;2023-07-31T07:07:01;12.07;;;7.80;;
1885;SDS011;943;51.568;6.998;2023-07-31T07:09:29;13.70;;;9.43;;
1885;SDS011;943;51.568;6.998;2023-07-31T07:11:57;11.90;;;7.63;;
1885;SDS011;943;51.568;6.998;2023-07-31T07:14:25;13.13;;;8.30;;
1885;SDS011;943;51.568;6.998;2023-07-31T07:16:53;9.60;;;7.40;;
1885;SDS011;943;51.568;6.998;2023-07-31T07:19:21;10.43;;;7.60;;
1885;SDS011;943;51.568;6.998;2023-07-31T07:21:49;9.17;;;6.50;;
1885;SDS011;943;51.568;6.998;2023-07-31T07:24:17;10.70;;;6.97;;
1885;SDS011;943;51.568;6.998;2023-07-31T07:26:46;13.33;;;7.63;;
1885;SDS011;943;51.568;6.998;2023-07-31T07:29:17;11.97;;;7.53;;
1885;SDS011;943;51.568;6.998;2023-07-31T07:31:58;10.27;;;6.80;;
1885;SDS011;943;51.568;6.998;2023-07-31T07:34:27;12.37;;;8.13;;
1885;SDS011;943;51.568;6.998;2023-07-31T07:36:56;8.93;;;7.40;;
1885;SDS011;943;51.568;6.998;2023-07-31T07:39:24;8.90;;;6.60;;
1885;SDS011;943;51.568;6.998;2023-07-31T07:41:52;14.60;;;8.13;;
1885;SDS011;943;51.568;6.998;2023-07-31T07:44:21;11.30;;;6.70;;
1885;SDS011;943;51.568;6.998;2023-07-31T07:46:49;13.23;;;7.83;;
1885;SDS011;943;51.568;6.998;2023-07-31T07:49:17;11.73;;;7.70;;
1885;SDS011;943;51.568;6.998;2023-07-31T07:51:45;10.87;;;7.27;;
1885;SDS011;943;51.568;6.998;2023-07-31T07:54:15;9.03;;;7.20;;
1885;SDS011;943;51.568;6.998;2023-07-31T07:56:44;12.63;;;8.50;;
1885;SDS011;943;51.568;6.998;2023-07-31T07:59:12;9.87;;;7.80;;
1885;SDS011;943;51.568;6.998;2023-07-31T08:01:40;10.37;;;7.93;;
1885;SDS011;943;51.568;6.998;2023-07-31T08:04:08;9.20;;;7.70;;
1885;SDS011;943;51.568;6.998;2023-07-31T08:06:36;10.70;;;8.10;;
1885;SDS011;943;51.568;6.998;2023-07-31T08:09:04;7.27;;;5.73;;
1885;SDS011;943;51.568;6.998;2023-07-31T08:11:33;9.33;;;6.50;;
1885;SDS011;943;51.568;6.998;2023-07-31T08:14:01;9.80;;;5.60;;
1885;SDS011;943;51.568;6.998;2023-07-31T08:16:31;5.83;;;5.23;;
1885;SDS011;943;51.568;6.998;2023-07-31T08:19:20;6.67;;;4.70;;
1885;SDS011;943;51.568;6.998;2023-07-31T08:22:02;8.33;;;5.67;;
1885;SDS011;943;51.568;6.998;2023-07-31T08:24:52;9.00;;;5.10;;
1885;SDS011;943;51.568;6.998;2023-07-31T08:27:46;6.53;;;4.40;;
1885;SDS011;943;51.568;6.998;2023-07-31T08:30:36;6.03;;;4.63;;
1885;SDS011;943;51.568;6.998;2023-07-31T08:33:25;8.90;;;5.50;;
1885;SDS011;943;51.568;6.998;2023-07-31T08:36:14;8.13;;;6.00;;
1885;SDS011;943;51.568;6.998;2023-07-31T08:38:42;10.00;;;6.17;;
1885;SDS011;943;51.568;6.998;2023-07-31T08:41:13;6.50;;;5.63;;
1885;SDS011;943;51.568;6.998;2023-07-31T08:43:40;8.73;;;5.87;;
1885;SDS011;943;51.568;6.998;2023-07-31T08:46:11;8.40;;;6.33;;
1885;SDS011;943;51.568;6.998;2023-07-31T08:48:44;10.90;;;7.20;;
1885;SDS011;943;51.568;6.998;2023-07-31T08:51:14;11.43;;;6.10;;
1885;SDS011;943;51.568;6.998;2023-07-31T08:53:42;9.77;;;6.47;;
1885;SDS011;943;51.568;6.998;2023-07-31T08:56:10;9.67;;;5.93;;
1885;SDS011;943;51.568;6.998;2023-07-31T08:58:41;6.27;;;5.47;;
1885;SDS011;943;51.568;6.998;2023-07-31T09:01:13;8.27;;;6.50;;
1885;SDS011;943;51.568;6.998;2023-07-31T09:03:42;11.93;;;6.33;;
1885;SDS011;943;51.568;6.998;2023-07-31T09:06:14;8.43;;;6.43;;
1885;SDS011;943;51.568;6.998;2023-07-31T09:08:49;10.57;;;6.43;;
1885;SDS011;943;51.568;6.998;2023-07-31T09:11:18;7.27;;;5.80;;
1885;SDS011;943;51.568;6.998;2023-07-31T09:13:50;6.67;;;5.17;;
1885;SDS011;943;51.568;6.998;2023-07-31T09:16:28;8.70;;;6.70;;
1885;SDS011;943;51.568;6.998;2023-07-31T09:18:59;8.57;;;6.23;;
1885;SDS011;943;51.568;6.998;2023-07-31T09:21:28;7.97;;;5.93;;
1885;SDS011;943;51.568;6.998;2023-07-31T09:23:56;8.07;;;5.23;;
1885;SDS011;943;51.568;6.998;2023-07-31T09:26:31;6.60;;;5.70;;
1885;SDS011;943;51.568;6.998;2023-07-31T09:29:04;6.97;;;5.70;;
1885;SDS011;943;51.568;6.998;2023-07-31T09:31:46;8.57;;;6.00;;
1885;SDS011;943;51.568;6.998;2023-07-31T09:34:14;9.87;;;7.10;;
1885;SDS011;943;51.568;6.998;2023-07-31T09:36:43;9.30;;;6.93;;
1885;SDS011;943;51.568;6.998;2023-07-31T09:39:18;9.53;;;6.80;;
1885;SDS011;943;51.568;6.998;2023-07-31T09:41:55;7.80;;;6.63;;
1885;SDS011;943;51.568;6.998;2023-07-31T09:44:40;8.90;;;5.33;;
1885;SDS011;943;51.568;6.998;2023-07-31T09:47:21;9.50;;;5.23;;
1885;SDS011;943;51.568;6.998;2023-07-31T09:49:52;6.73;;;6.03;;
1885;SDS011;943;51.568;6.998;2023-07-31T09:52:20;11.80;;;6.13;;
1885;SDS011;943;51.568;6.998;2023-07-31T09:54:48;17.20;;;6.30;;
1885;SDS011;943;51.568;6.998;2023-07-31T09:57:17;7.80;;;5.90;;
1885;SDS011;943;51.568;6.998;2023-07-31T09:59:50;8.03;;;6.30;;
1885;SDS011;943;51.568;6.998;2023-07-31T10:02:22;9.40;;;5.67;;
1885;SDS011;943;51.568;6.998;2023-07-31T10:04:54;8.50;;;6.33;;
1885;SDS011;943;51.568;6.998;2023-07-31T10:07:31;11.43;;;6.30;;
1885;SDS011;943;51.568;6.998;2023-07-31T10:10:10;7.73;;;6.67;;
1885;SDS011;943;51.568;6.998;2023-07-31T10:12:39;6.73;;;6.00;;
1885;SDS011;943;51.568;6.998;2023-07-31T10:15:11;6.80;;;5.90;;
1885;SDS011;943;51.568;6.998;2023-07-31T10:17:41;9.00;;;6.50;;
1885;SDS011;943;51.568;6.998;2023-07-31T10:20:10;7.20;;;6.20;;
1885;SDS011;943;51.568;6.998;2023-07-31T10:22:39;7.37;;;5.60;;
1885;SDS011;943;51.568;6.998;2023-07-31T10:25:09;6.47;;;5.87;;
1885;SDS011;943;51.568;6.998;2023-07-31T10:27:38;7.10;;;5.27;;
1885;SDS011;943;51.568;6.998;2023-07-31T10:30:17;7.50;;;5.20;;
1885;SDS011;943;51.568;6.998;2023-07-31T10:32:53;7.00;;;5.47;;
1885;SDS011;943;51.568;6.998;2023-07-31T10:35:23;7.13;;;5.40;;
1885;SDS011;943;51.568;6.998;2023-07-31T10:37:53;7.50;;;5.47;;
1885;SDS011;943;51.568;6.998;2023-07-31T10:40:27;8.70;;;6.07;;
1885;SDS011;943;51.568;6.998;2023-07-31T10:42:55;10.77;;;5.50;;
1885;SDS011;943;51.568;6.998;2023-07-31T10:45:37;10.23;;;6.10;;
1885;SDS011;943;51.568;6.998;2023-07-31T10:48:14;8.50;;;6.07;;
1885;SDS011;943;51.568;6.998;2023-07-31T10:50:50;7.03;;;4.80;;
1885;SDS011;943;51.568;6.998;2023-07-31T10:53:28;7.03;;;5.63;;
1885;SDS011;943;51.568;6.998;2023-07-31T10:56:01;6.70;;;5.63;;
1885;SDS011;943;51.568;6.998;2023-07-31T10:58:36;9.70;;;6.00;;
1885;SDS011;943;51.568;6.998;2023-07-31T11:01:05;10.23;;;6.30;;
1885;SDS011;943;51.568;6.998;2023-07-31T11:03:45;12.03;;;6.90;;
1885;SDS011;943;51.568;6.998;2023-07-31T11:06:21;6.10;;;5.10;;
1885;SDS011;943;51.568;6.998;2023-07-31T11:08:50;8.70;;;5.20;;
1885;SDS011;943;51.568;6.998;2023-07-31T11:11:19;6.77;;;4.93;;
1885;SDS011;943;51.568;6.998;2023-07-31T11:13:49;5.40;;;4.70;;
1885;SDS011;943;51.568;6.998;2023-07-31T11:16:21;7.47;;;6.30;;
1885;SDS011;943;51.568;6.998;2023-07-31T11:18:52;7.03;;;4.90;;
1885;SDS011;943;51.568;6.998;2023-07-31T11:21:23;7.23;;;5.73;;
1885;SDS011;943;51.568;6.998;2023-07-31T11:23:53;6.60;;;4.67;;
1885;SDS011;943;51.568;6.998;2023-07-31T11:26:28;7.13;;;5.30;;
1885;SDS011;943;51.568;6.998;2023-07-31T11:28:58;5.20;;;4.43;;
1885;SDS011;943;51.568;6.998;2023-07-31T11:31:29;6.70;;;4.63;;
1885;SDS011;943;51.568;6.998;2023-07-31T11:34:04;6.03;;;4.37;;
1885;SDS011;943;51.568;6.998;2023-07-31T11:36:36;7.57;;;4.73;;
1885;SDS011;943;51.568;6.998;2023-07-31T11:39:12;10.37;;;4.63;;
1885;SDS011;943;51.568;6.998;2023-07-31T11:41:40;7.57;;;4.47;;
1885;SDS011;943;51.568;6.998;2023-07-31T11:44:08;6.87;;;5.07;;
1885;SDS011;943;51.568;6.998;2023-07-31T11:46:56;5.97;;;4.60;;
1885;SDS011;943;51.568;6.998;2023-07-31T11:49:29;7.20;;;5.40;;
1885;SDS011;943;51.568;6.998;2023-07-31T11:52:02;11.33;;;5.00;;
1885;SDS011;943;51.568;6.998;2023-07-31T11:54:30;7.87;;;4.77;;
1885;SDS011;943;51.568;6.998;2023-07-31T11:56:59;7.80;;;5.60;;
1885;SDS011;943;51.568;6.998;2023-07-31T11:59:29;7.83;;;4.83;;
1885;SDS011;943;51.568;6.998;2023-07-31T12:01:58;7.80;;;5.10;;
1885;SDS011;943;51.568;6.998;2023-07-31T12:04:27;6.70;;;5.40;;
1885;SDS011;943;51.568;6.998;2023-07-31T12:06:56;9.30;;;6.10;;
1885;SDS011;943;51.568;6.998;2023-07-31T12:09:27;9.97;;;4.80;;
1885;SDS011;943;51.568;6.998;2023-07-31T12:11:55;7.90;;;5.33;;
1885;SDS011;943;51.568;6.998;2023-07-31T12:14:23;5.40;;;4.03;;
1885;SDS011;943;51.568;6.998;2023-07-31T12:16:58;11.00;;;4.70;;
1885;SDS011;943;51.568;6.998;2023-07-31T12:19:34;6.53;;;4.60;;
1885;SDS011;943;51.568;6.998;2023-07-31T12:22:14;5.17;;;3.97;;
1885;SDS011;943;51.568;6.998;2023-07-31T12:24:44;7.10;;;4.57;;
1885;SDS011;943;51.568;6.998;2023-07-31T12:27:12;5.30;;;4.07;;
1885;SDS011;943;51.568;6.998;2023-07-31T12:29:44;8.27;;;3.70;;
1885;SDS011;943;51.568;6.998;2023-07-31T12:32:22;5.30;;;4.30;;
1885;SDS011;943;51.568;6.998;2023-07-31T12:34:52;5.93;;;3.97;;
1885;SDS011;943;51.568;6.998;2023-07-31T12:37:20;9.43;;;4.93;;
1885;SDS011;943;51.568;6.998;2023-07-31T12:39:48;5.50;;;4.20;;
1885;SDS011;943;51.568;6.998;2023-07-31T12:42:17;6.83;;;4.80;;
1885;SDS011;943;51.568;6.998;2023-07-31T12:44:45;6.63;;;4.27;;
1885;SDS011;943;51.568;6.998;2023-07-31T12:47:13;5.50;;;4.00;;
1885;SDS011;943;51.568;6.998;2023-07-31T12:49:42;5.70;;;4.60;;
1885;SDS011;943;51.568;6.998;2023-07-31T12:52:10;6.90;;;3.97;;
1885;SDS011;943;51.568;6.998;2023-07-31T12:54:38;5.27;;;4.40;;
1885;SDS011;943;51.568;6.998;2023-07-31T12:57:06;5.73;;;4.10;;
1885;SDS011;943;51.568;6.998;2023-07-31T12:59:34;6.57;;;4.53;;
1885;SDS011;943;51.568;6.998;2023-07-31T13:02:03;5.13;;;3.73;;
1885;SDS011;943;51.568;6.998;2023-07-31T13:04:32;10.67;;;4.33;;
1885;SDS011;943;51.568;6.998;2023-07-31T13:07:01;5.03;;;3.87;;
1885;SDS011;943;51.568;6.998;2023-07-31T13:09:29;9.20;;;3.83;;
1885;SDS011;943;51.568;6.998;2023-07-31T13:11:57;4.97;;;3.80;;
1885;SDS011;943;51.568;6.998;2023-07-31T13:14:26;7.13;;;3.50;;
1885;SDS011;943;51.568;6.998;2023-07-31T13:16:55;4.50;;;3.47;;
1885;SDS011;943;51.568;6.998;2023-07-31T13:19:23;7.83;;;4.30;;
1885;SDS011;943;51.568;6.998;2023-07-31T13:21:51;6.10;;;4.53;;
1885;SDS011;943;51.568;6.998;2023-07-31T13:24:19;7.40;;;4.40;;
1885;SDS011;943;51.568;6.998;2023-07-31T13:26:47;4.60;;;3.63;;
1885;SDS011;943;51.568;6.998;2023-07-31T13:29:15;4.97;;;4.23;;
1885;SDS011;943;51.568;6.998;2023-07-31T13:31:43;6.87;;;4.53;;
1885;SDS011;943;51.568;6.998;2023-07-31T13:34:11;5.10;;;3.73;;
1885;SDS011;943;51.568;6.998;2023-07-31T13:36:39;8.33;;;4.87;;
1885;SDS011;943;51.568;6.998;2023-07-31T13:39:08;9.10;;;4.37;;
1885;SDS011;943;51.568;6.998;2023-07-31T13:41:37;6.30;;;4.20;;
1885;SDS011;943;51.568;6.998;2023-07-31T13:44:05;6.67;;;4.70;;
1885;SDS011;943;51.568;6.998;2023-07-31T13:46:33;9.47;;;4.87;;
1885;SDS011;943;51.568;6.998;2023-07-31T13:49:03;11.63;;;5.53;;
1885;SDS011;943;51.568;6.998;2023-07-31T13:51:51;11.87;;;3.97;;
1885;SDS011;943;51.568;6.998;2023-07-31T13:54:40;5.80;;;5.00;;
1885;SDS011;943;51.568;6.998;2023-07-31T13:57:30;8.73;;;5.20;;
1885;SDS011;943;51.568;6.998;2023-07-31T14:00:20;7.07;;;5.70;;
1885;SDS011;943;51.568;6.998;2023-07-31T14:03:09;8.10;;;5.00;;
1885;SDS011;943;51.568;6.998;2023-07-31T14:05:59;9.57;;;7.17;;
1885;SDS011;943;51.568;6.998;2023-07-31T14:08:48;13.50;;;8.50;;
1885;SDS011;943;51.568;6.998;2023-07-31T14:11:16;11.80;;;7.70;;
1885;SDS011;943;51.568;6.998;2023-07-31T14:13:44;13.93;;;8.00;;
1885;SDS011;943;51.568;6.998;2023-07-31T14:16:12;21.43;;;11.80;;
1885;SDS011;943;51.568;6.998;2023-07-31T14:18:41;26.63;;;21.10;;
1885;SDS011;943;51.568;6.998;2023-07-31T14:21:09;9.87;;;7.13;;
1885;SDS011;943;51.568;6.998;2023-07-31T14:23:37;6.80;;;5.13;;
1885;SDS011;943;51.568;6.998;2023-07-31T14:26:07;7.13;;;5.10;;
1885;SDS011;943;51.568;6.998;2023-07-31T14:28:39;9.00;;;4.57;;
1885;SDS011;943;51.568;6.998;2023-07-31T14:31:07;8.00;;;4.23;;
1885;SDS011;943;51.568;6.998;2023-07-31T14:33:35;8.73;;;4.67;;
1885;SDS011;943;51.568;6.998;2023-07-31T14:36:04;7.80;;;3.77;;
1885;SDS011;943;51.568;6.998;2023-07-31T14:38:32;6.30;;;4.10;;
1885;SDS011;943;51.568;6.998;2023-07-31T14:41:00;7.47;;;4.77;;
1885;SDS011;943;51.568;6.998;2023-07-31T14:43:28;5.57;;;3.90;;
1885;SDS011;943;51.568;6.998;2023-07-31T14:45:56;7.23;;;4.70;;
1885;SDS011;943;51.568;6.998;2023-07-31T14:48:26;5.20;;;3.83;;
1885;SDS011;943;51.568;6.998;2023-07-31T14:50:55;5.30;;;3.80;;
1885;SDS011;943;51.568;6.998;2023-07-31T14:53:23;8.87;;;4.70;;
1885;SDS011;943;51.568;6.998;2023-07-31T14:55:51;9.13;;;3.80;;
1885;SDS011;943;51.568;6.998;2023-07-31T14:58:19;6.90;;;4.60;;
1885;SDS011;943;51.568;6.998;2023-07-31T15:00:47;6.33;;;4.00;;
1885;SDS011;943;51.568;6.998;2023-07-31T15:03:15;6.70;;;4.00;;
1885;SDS011;943;51.568;6.998;2023-07-31T15:05:43;6.77;;;4.50;;
1885;SDS011;943;51.568;6.998;2023-07-31T15:08:12;9.43;;;5.20;;
1885;SDS011;943;51.568;6.998;2023-07-31T15:10:40;5.47;;;3.93;;
1885;SDS011;943;51.568;6.998;2023-07-31T15:13:08;13.70;;;5.00;;
1885;SDS011;943;51.568;6.998;2023-07-31T15:15:38;6.60;;;4.83;;
1885;SDS011;943;51.568;6.998;2023-07-31T15:18:06;6.70;;;5.57;;
1885;SDS011;943;51.568;6.998;2023-07-31T15:20:34;9.87;;;5.00;;
1885;SDS011;943;51.568;6.998;2023-07-31T15:23:02;7.70;;;5.10;;
1885;SDS011;943;51.568;6.998;2023-07-31T15:25:31;9.23;;;4.87;;
1885;SDS011;943;51.568;6.998;2023-07-31T15:27:59;5.80;;;4.20;;
1885;SDS011;943;51.568;6.998;2023-07-31T15:30:27;8.80;;;5.23;;
1885;SDS011;943;51.568;6.998;2023-07-31T15:32:56;7.33;;;5.13;;
1885;SDS011;943;51.568;6.998;2023-07-31T15:35:25;9.00;;;5.30;;
1885;SDS011;943;51.568;6.998;2023-07-31T15:37:53;7.90;;;5.07;;
1885;SDS011;943;51.568;6.998;2023-07-31T15:40:21;7.97;;;5.57;;
1885;SDS011;943;51.568;6.998;2023-07-31T15:42:50;8.33;;;5.00;;
1885;SDS011;943;51.568;6.998;2023-07-31T15:45:18;7.20;;;4.73;;
1885;SDS011;943;51.568;6.998;2023-07-31T15:47:47;10.17;;;4.83;;